Time;durP1;ratioP1;P1;durP2;ratioP2;P2;SDS_P1;SDS_P2;PMS_P1;PMS_P2;Temp;Humidity;BMP_temperature;BMP_pressure;BME280_temperature;BME280_humidity;BME280_pressure;Samples;Min_cycle;Max_cycle;Signal;HPM_P1;HPM_P2
2023/09/27 00:00:45;;;;;;;61.75;33.28;;;;;;;;;;5119930;27;20138;-67
2023/09/27 00:03:11;;;;;;;55.47;31.60;;;;;;;;;;5137675;27;20047;-67
2023/09/27 00:05:37;;;;;;;55.45;31.98;;;;;;;;;;5119647;27;20088;-68
2023/09/27 00:08:06;;;;;;;56.78;30.92;;;;;;;;;;5137506;27;20075;-70
2023/09/27 00:10:32;;;;;;;58.70;31.88;;;;;;;;;;5137692;27;20047;-70
2023/09/27 00:12:58;;;;;;;59.00;33.00;;;;;;;;;;5137692;27;20078;-70
2023/09/27 00:15:24;;;;;;;63.90;32.70;;;;;;;;;;5137372;27;20099;-70
2023/09/27 00:17:50;;;;;;;58.03;33.27;;;;;;;;;;5137574;27;20142;-71
2023/09/27 00:20:19;;;;;;;57.55;31.90;;;;;;;;;;5119373;27;20050;-70
2023/09/27 00:22:45;;;;;;;56.58;31.80;;;;;;;;;;5137463;27;20054;-71
2023/09/27 00:25:12;;;;;;;59.73;32.50;;;;;;;;;;5137304;27;20051;-70
2023/09/27 00:27:38;;;;;;;56.28;32.70;;;;;;;;;;5137156;27;20054;-69
2023/09/27 00:30:07;;;;;;;58.25;34.28;;;;;;;;;;5137076;27;20431;-70
2023/09/27 00:32:33;;;;;;;62.55;34.80;;;;;;;;;;5120096;27;20058;-71
2023/09/27 00:35:00;;;;;;;63.17;34.88;;;;;;;;;;5118975;27;20046;-71
2023/09/27 00:37:27;;;;;;;62.65;34.80;;;;;;;;;;5137728;27;20379;-70
2023/09/27 00:39:53;;;;;;;66.38;34.45;;;;;;;;;;5119478;27;20058;-71
2023/09/27 00:42:19;;;;;;;64.87;34.23;;;;;;;;;;5136968;27;20049;-71
2023/09/27 00:44:45;;;;;;;61.60;33.13;;;;;;;;;;5137256;27;20364;-70
2023/09/27 00:47:11;;;;;;;65.55;35.05;;;;;;;;;;5119134;27;20363;-70
2023/09/27 00:49:39;;;;;;;61.20;34.38;;;;;;;;;;5137028;27;20064;-71
2023/09/27 00:52:05;;;;;;;66.88;35.33;;;;;;;;;;5118723;27;20047;-71
2023/09/27 00:54:31;;;;;;;67.10;36.93;;;;;;;;;;5137185;27;20043;-70
2023/09/27 00:56:57;;;;;;;65.20;34.45;;;;;;;;;;5119436;27;20318;-71
2023/09/27 00:59:24;;;;;;;71.07;36.05;;;;;;;;;;5136953;27;20147;-71
2023/09/27 01:01:50;;;;;;;66.32;35.50;;;;;;;;;;5118162;27;20054;-70
2023/09/27 01:04:17;;;;;;;67.97;35.85;;;;;;;;;;5136369;27;20122;-70
2023/09/27 01:06:43;;;;;;;63.92;35.13;;;;;;;;;;5136481;27;20051;-70
2023/09/27 01:09:11;;;;;;;69.25;34.75;;;;;;;;;;5136373;27;20127;-71
2023/09/27 01:11:37;;;;;;;66.93;34.95;;;;;;;;;;5136764;27;20054;-70
2023/09/27 01:14:03;;;;;;;69.27;36.10;;;;;;;;;;5136362;27;20050;-71
2023/09/27 01:16:29;;;;;;;59.37;33.23;;;;;;;;;;5118496;27;20050;-70
2023/09/27 01:19:01;;;;;;;67.78;35.85;;;;;;;;;;5136908;27;20381;-70
2023/09/27 01:21:27;;;;;;;68.43;35.85;;;;;;;;;;5118669;27;20395;-70
2023/09/27 01:23:53;;;;;;;69.78;35.20;;;;;;;;;;5136896;27;20348;-70
2023/09/27 01:26:21;;;;;;;65.15;35.78;;;;;;;;;;5135969;27;20050;-70
2023/09/27 01:28:47;;;;;;;66.00;36.10;;;;;;;;;;5136429;27;20126;-69
2023/09/27 01:31:14;;;;;;;68.57;35.45;;;;;;;;;;5135885;27;20047;-70
2023/09/27 01:33:40;;;;;;;69.72;36.22;;;;;;;;;;5136594;27;20043;-71
2023/09/27 01:36:07;;;;;;;68.57;35.83;;;;;;;;;;5135733;27;20058;-70
2023/09/27 01:38:33;;;;;;;67.43;36.53;;;;;;;;;;5135724;27;20118;-69
2023/09/27 01:40:59;;;;;;;72.23;36.63;;;;;;;;;;5136127;27;20364;-69
2023/09/27 01:43:25;;;;;;;65.07;35.65;;;;;;;;;;5117985;27;20769;-70
2023/09/27 01:45:52;;;;;;;70.22;36.38;;;;;;;;;;5117513;27;20120;-70
2023/09/27 01:48:19;;;;;;;65.60;35.33;;;;;;;;;;5136267;27;20375;-71
2023/09/27 01:50:45;;;;;;;69.70;36.63;;;;;;;;;;5135942;27;20441;-70
2023/09/27 01:53:11;;;;;;;69.38;37.03;;;;;;;;;;5117243;27;20096;-71
2023/09/27 01:55:37;;;;;;;71.05;37.05;;;;;;;;;;5135523;27;20054;-69
2023/09/27 01:58:04;;;;;;;70.28;36.65;;;;;;;;;;5135155;27;20043;-71
2023/09/27 02:00:30;;;;;;;68.78;36.17;;;;;;;;;;5136255;27;20047;-70
2023/09/27 02:02:57;;;;;;;69.67;35.90;;;;;;;;;;5118088;27;20043;-71
2023/09/27 02:05:24;;;;;;;71.70;37.08;;;;;;;;;;5116785;27;20055;-71
2023/09/27 02:07:50;;;;;;;70.22;36.28;;;;;;;;;;5117317;27;20493;-70
2023/09/27 02:10:16;;;;;;;70.57;36.33;;;;;;;;;;5117162;27;20493;-72
2023/09/27 02:12:43;;;;;;;66.88;35.78;;;;;;;;;;5135251;27;20057;-70
2023/09/27 02:15:10;;;;;;;74.90;37.83;;;;;;;;;;5117303;27;20100;-70
2023/09/27 02:17:36;;;;;;;74.32;38.13;;;;;;;;;;5135117;27;20054;-70
2023/09/27 02:20:07;;;;;;;76.28;38.00;;;;;;;;;;5135123;27;20467;-70
2023/09/27 02:22:33;;;;;;;68.32;35.60;;;;;;;;;;5116944;27;20441;-70
2023/09/27 02:24:59;;;;;;;71.68;37.70;;;;;;;;;;5135432;27;20046;-70
2023/09/27 02:27:25;;;;;;;71.20;37.85;;;;;;;;;;5135018;27;20047;-70
2023/09/27 02:29:51;;;;;;;76.32;36.47;;;;;;;;;;5134974;27;20061;-70
2023/09/27 02:32:17;;;;;;;69.63;36.57;;;;;;;;;;5134920;27;20047;-69
2023/09/27 02:34:44;;;;;;;69.97;36.58;;;;;;;;;;5135107;27;20066;-70
2023/09/27 02:37:11;;;;;;;68.93;35.92;;;;;;;;;;5134801;27;20043;-70
2023/09/27 02:39:37;;;;;;;72.73;37.07;;;;;;;;;;5116693;27;20387;-70
2023/09/27 02:42:03;;;;;;;73.10;36.75;;;;;;;;;;5117107;27;20141;-69
2023/09/27 02:44:29;;;;;;;77.47;39.20;;;;;;;;;;5134526;27;20046;-70
2023/09/27 02:46:55;;;;;;;70.35;37.60;;;;;;;;;;5134838;27;20498;-70
2023/09/27 02:49:22;;;;;;;77.00;39.50;;;;;;;;;;5134483;27;20043;-71
2023/09/27 02:51:52;;;;;;;74.97;37.40;;;;;;;;;;5134562;27;20135;-70
2023/09/27 02:54:19;;;;;;;77.25;38.55;;;;;;;;;;5134541;27;20046;-70
2023/09/27 02:56:45;;;;;;;75.30;37.65;;;;;;;;;;5134291;27;20054;-69
2023/09/27 02:59:14;;;;;;;80.03;38.17;;;;;;;;;;5099489;27;20129;-70
2023/09/27 03:01:41;;;;;;;79.07;39.15;;;;;;;;;;5116480;27;20047;-70
2023/09/27 03:04:15;;;;;;;79.20;36.85;;;;;;;;;;5134329;27;20040;-70
2023/09/27 03:06:42;;;;;;;77.95;38.40;;;;;;;;;;5134081;27;20043;-69
2023/09/27 03:09:09;;;;;;;77.25;38.88;;;;;;;;;;5099488;28;20082;-70
2023/09/27 03:11:36;;;;;;;77.53;37.38;;;;;;;;;;5134233;27;20126;-70
2023/09/27 03:14:02;;;;;;;90.78;39.55;;;;;;;;;;5134292;27;20138;-70
2023/09/27 03:16:29;;;;;;;74.80;36.90;;;;;;;;;;5135356;28;20066;-71
2023/09/27 03:18:55;;;;;;;78.30;36.85;;;;;;;;;;5134335;28;20051;-69
2023/09/27 03:21:22;;;;;;;80.32;40.00;;;;;;;;;;5134246;28;20072;-70
2023/09/27 03:23:48;;;;;;;79.55;39.25;;;;;;;;;;5134115;28;20081;-69
2023/09/27 03:26:14;;;;;;;85.47;41.95;;;;;;;;;;5134221;28;20046;-69
2023/09/27 03:28:40;;;;;;;82.20;42.22;;;;;;;;;;5134784;28;20135;-70
2023/09/27 03:31:06;;;;;;;84.15;41.65;;;;;;;;;;5134255;28;20069;-70
2023/09/27 03:33:32;;;;;;;85.65;40.95;;;;;;;;;;5134652;28;20039;-69
2023/09/27 03:36:02;;;;;;;83.72;40.15;;;;;;;;;;5115921;28;20047;-69
2023/09/27 03:38:28;;;;;;;87.50;43.13;;;;;;;;;;5133914;28;20054;-71
2023/09/27 03:40:54;;;;;;;85.10;41.95;;;;;;;;;;5134681;28;20050;-69
2023/09/27 03:43:20;;;;;;;87.68;44.00;;;;;;;;;;5134011;28;20054;-70
2023/09/27 03:45:47;;;;;;;91.43;42.30;;;;;;;;;;5115891;28;20073;-69
2023/09/27 03:48:13;;;;;;;91.50;44.67;;;;;;;;;;5134002;28;20054;-70
2023/09/27 03:50:39;;;;;;;90.07;45.83;;;;;;;;;;5098884;28;20288;-71
2023/09/27 03:53:05;;;;;;;86.07;44.45;;;;;;;;;;5133995;28;20126;-69
2023/09/27 03:55:31;;;;;;;91.93;46.28;;;;;;;;;;5115826;28;20150;-72
2023/09/27 03:57:57;;;;;;;98.75;47.17;;;;;;;;;;5115921;28;20054;-70
2023/09/27 04:00:23;;;;;;;95.32;47.85;;;;;;;;;;5116076;28;20047;-69
2023/09/27 04:02:49;;;;;;;98.03;46.10;;;;;;;;;;5133684;28;20179;-70
2023/09/27 04:05:22;;;;;;;98.78;48.40;;;;;;;;;;5133828;28;20039;-71
2023/09/27 04:07:48;;;;;;;100.38;48.80;;;;;;;;;;5134518;28;20143;-69
2023/09/27 04:10:17;;;;;;;100.50;49.38;;;;;;;;;;5134567;28;20043;-70
2023/09/27 04:12:43;;;;;;;111.70;50.13;;;;;;;;;;5115762;28;20494;-70
2023/09/27 04:15:09;;;;;;;106.25;51.08;;;;;;;;;;5133821;28;20049;-70
2023/09/27 04:17:37;;;;;;;106.85;51.50;;;;;;;;;;5133984;28;20079;-71
2023/09/27 04:20:14;;;;;;;;;;;;;;;;;;5116218;27;20523;-71
2023/09/27 04:22:47;;;;;;;93.90;46.85;;;;;;;;;;5137419;27;19926;-71
2023/09/27 04:25:14;;;;;;;101.45;47.80;;;;;;;;;;5137344;27;20047;-70
2023/09/27 04:27:45;;;;;;;107.43;50.60;;;;;;;;;;5119023;27;20406;-70
2023/09/27 04:30:14;;;;;;;107.90;50.28;;;;;;;;;;5137235;27;20126;-70
2023/09/27 04:32:42;;;;;;;108.32;51.35;;;;;;;;;;5137554;27;20125;-69
2023/09/27 04:35:12;;;;;;;114.55;52.88;;;;;;;;;;5119520;27;20446;-70
2023/09/27 04:37:39;;;;;;;118.40;53.35;;;;;;;;;;5137217;27;20471;-70
2023/09/27 04:40:11;;;;;;;117.70;53.33;;;;;;;;;;5137149;27;20510;-70
2023/09/27 04:42:38;;;;;;;117.35;53.75;;;;;;;;;;5119742;27;20079;-70
2023/09/27 04:45:06;;;;;;;113.32;52.47;;;;;;;;;;5137171;27;20083;-70
2023/09/27 04:47:32;;;;;;;121.03;54.35;;;;;;;;;;5136892;27;20535;-70
2023/09/27 04:49:58;;;;;;;115.85;54.50;;;;;;;;;;5137474;27;20379;-70
2023/09/27 04:52:24;;;;;;;123.28;55.72;;;;;;;;;;5119128;27;20051;-70
2023/09/27 04:54:59;;;;;;;122.22;54.95;;;;;;;;;;5119041;27;20092;-70
2023/09/27 04:57:26;;;;;;;117.93;55.40;;;;;;;;;;5119300;27;20043;-70
2023/09/27 04:59:52;;;;;;;125.18;56.25;;;12.10;99.90;;;;;;5118208;27;20055;-69
2023/09/27 05:02:21;;;;;;;115.78;53.22;;;;;;;;;;5118076;27;20055;-70
2023/09/27 05:04:47;;;;;;;118.55;56.30;;;;;;;;;;5136399;27;20050;-69
2023/09/27 05:07:17;;;;;;;119.88;52.90;;;;;;;;;;5136402;27;20043;-70
2023/09/27 05:09:44;;;;;;;126.38;57.88;;;;;;;;;;5136936;27;20096;-70
2023/09/27 05:12:10;;;;;;;135.93;58.47;;;;;;;;;;5117840;27;20081;-70
2023/09/27 05:14:36;;;;;;;129.17;54.47;;;;;;;;;;5136397;27;20088;-69
2023/09/27 05:17:02;;;;;;;124.65;55.38;;;;;;;;;;5117835;27;20500;-70
2023/09/27 05:19:28;;;;;;;124.18;54.28;;;;;;;;;;5117841;27;20367;-69
2023/09/27 05:21:55;;;;;;;122.13;56.03;;;;;;;;;;5136055;27;20465;-69
2023/09/27 05:24:21;;;;;;;121.80;55.05;;;;;;;;;;5135740;27;20475;-71
2023/09/27 05:26:47;;;;;;;111.28;52.10;;;12.20;99.90;;;;;;5136753;27;20134;-70
2023/09/27 05:29:16;;;;;;;124.13;54.20;;;;;;;;;;5136810;27;20551;-70
2023/09/27 05:31:45;;;;;;;118.07;52.63;;;12.30;99.90;;;;;;5135934;27;20050;-69
2023/09/27 05:34:11;;;;;;;128.73;55.45;;;;;;;;;;5117096;27;20039;-69
2023/09/27 05:36:37;;;;;;;120.77;54.40;;;;;;;;;;5135964;27;20043;-69
2023/09/27 05:39:08;;;;;;;127.47;52.03;;;;;;;;;;5118313;27;20047;-69
2023/09/27 05:41:35;;;;;;;123.30;54.67;;;;;;;;;;5136242;27;20177;-69
2023/09/27 05:44:01;;;;;;;124.95;54.88;;;;;;;;;;5117291;27;20043;-70
2023/09/27 05:46:29;;;;;;;122.13;54.60;;;;;;;;;;5117588;27;20054;-69
2023/09/27 05:48:55;;;;;;;128.73;53.83;;;;;;;;;;5135632;27;20111;-68
2023/09/27 05:51:22;;;;;;;114.53;50.97;;;;;;;;;;5135655;27;20130;-70
2023/09/27 05:53:52;;;;;;;114.93;54.17;;;;;;;;;;5117389;27;20058;-71
2023/09/27 05:56:18;;;;;;;117.95;50.47;;;;;;;;;;5117432;27;20051;-69
2023/09/27 05:58:44;;;;;;;117.80;50.63;;;;;;;;;;5135435;27;20054;-69
2023/09/27 06:01:10;;;;;;;111.90;49.58;;;;;;;;;;5117211;27;20035;-69
2023/09/27 06:03:37;;;;;;;111.40;49.83;;;;;;;;;;5135802;27;20091;-69
2023/09/27 06:06:03;;;;;;;113.55;51.00;;;;;;;;;;5135104;27;20047;-70
2023/09/27 06:08:29;;;;;;;116.38;50.42;;;;;;;;;;5135278;27;20042;-69
2023/09/27 06:10:56;;;;;;;114.32;49.00;;;;;;;;;;5135119;27;20047;-68
2023/09/27 06:13:23;;;;;;;110.97;48.97;;;;;;;;;;5135165;27;20057;-69
2023/09/27 06:15:49;;;;;;;115.20;50.10;;;;;;;;;;5135043;27;20042;-70
2023/09/27 06:18:16;;;;;;;110.53;48.10;;;;;;;;;;5135123;27;20046;-70
2023/09/27 06:20:42;;;;;;;110.88;48.03;;;;;;;;;;5134712;27;20055;-70
2023/09/27 06:23:09;;;;;;;105.68;46.85;;;;;;;;;;5116517;27;20491;-70
2023/09/27 06:25:35;;;;;;;;;;;;;;;;;;5135177;27;20051;-69
2023/09/27 06:28:02;;;;;;;114.50;48.40;;;;;;;;;;5095946;28;20360;-70
2023/09/27 06:30:28;;;;;;;119.93;50.35;;;;;;;;;;5114503;28;20048;-69
2023/09/27 06:32:54;;;;;;;125.33;52.30;;;;;;;;;;5097081;28;20053;-70
2023/09/27 06:35:20;;;;;;;119.50;52.03;;;;;;;;;;5114354;28;20039;-69
2023/09/27 06:37:49;;;;;;;129.65;56.55;;;;;;;;;;5115245;28;20050;-69
2023/09/27 06:40:17;;;;;;;136.25;55.88;;;;;;;;;;5114176;28;20390;-69
2023/09/27 06:42:43;;;;;;;;;;;;;;;;;;5113341;28;20096;-69
2023/09/27 06:45:10;;;;;;;;;;;;;;;;;;5114359;28;20303;-70
2023/09/27 06:47:38;;;;;;;130.45;55.03;;;;;;;;;;5113873;28;19919;-69
2023/09/27 06:50:04;;;;;;;148.38;58.55;;;;;;;;;;5114500;28;20163;-70
2023/09/27 06:52:31;;;;;;;144.18;58.45;;;;;;;;;;5112856;28;20051;-70
2023/09/27 06:54:57;;;;;;;139.82;58.15;;;;;;;;;;5114128;28;20177;-70
2023/09/27 06:57:24;;;;;;;139.30;59.20;;;;;;;;;;5112715;28;20056;-69
2023/09/27 06:59:50;;;;;;;137.73;60.35;;;;;;;;;;5114739;28;20126;-70
2023/09/27 07:02:16;;;;;;;142.50;60.95;;;;;;;;;;5112938;28;20135;-69
2023/09/27 07:04:43;;;;;;;145.25;61.53;;;;;;;;;;5095952;28;20368;-69
2023/09/27 07:07:10;;;;;;;144.97;61.90;;;;;;;;;;5113160;28;20047;-69
2023/09/27 07:09:36;;;;;;;143.50;62.78;;;;;;;;;;5112866;28;20471;-70
2023/09/27 07:12:02;;;;;;;151.52;65.22;;;;;;;;;;5112461;28;20066;-70
2023/09/27 07:14:28;;;;;;;158.23;65.10;;;;;;;;;;5113496;28;20048;-70
2023/09/27 07:16:54;;;;;;;151.77;63.42;;;;;;;;;;5113599;28;20116;-71
2023/09/27 07:19:21;;;;;;;150.40;65.53;;;;;;;;;;5114550;28;20050;-70
2023/09/27 07:21:47;;;;;;;151.95;66.57;;;;;;;;;;5113643;28;20050;-70
2023/09/27 07:24:14;;;;;;;160.57;67.03;;;;;;;;;;5095753;28;20039;-69
2023/09/27 07:26:41;;;;;;;157.23;69.40;;;;;;;;;;5112317;28;20133;-70
2023/09/27 07:29:08;;;;;;;153.38;67.20;;;;;;;;;;5113501;28;20054;-70
2023/09/27 07:31:35;;;;;;;156.73;67.55;;;;;;;;;;5112353;28;20122;-69
2023/09/27 07:34:01;;;;;;;157.02;67.07;;;;;;;;;;5113534;28;20055;-70
2023/09/27 07:36:28;;;;;;;155.48;67.78;;;;;;;;;;5112993;28;20049;-70
2023/09/27 07:38:58;;;;;;;161.07;67.70;;;;;;;;;;5113469;28;20047;-70
2023/09/27 07:41:27;;;;;;;166.18;68.47;;;;;;;;;;5114171;28;20117;-71
2023/09/27 07:43:53;;;;;;;169.63;70.88;;;;;;;;;;5113353;28;20035;-70
2023/09/27 07:46:19;;;;;;;163.23;71.93;;;;;;;;;;5112397;28;20055;-70
2023/09/27 07:48:46;;;;;;;160.90;71.15;;;;;;;;;;5113399;28;20130;-70
2023/09/27 07:51:12;;;;;;;169.02;70.22;;;;;;;;;;5113887;28;20056;-70
2023/09/27 07:53:39;;;;;;;174.10;71.72;;;;;;;;;;5113252;28;20051;-70
2023/09/27 07:56:09;;;;;;;159.98;67.25;;;;;;;;;;5113301;28;20082;-70
2023/09/27 07:58:35;;;;;;;172.93;73.38;;;;;;;;;;5117364;28;20047;-71
2023/09/27 08:01:01;;;;;;;182.77;75.15;;;;;;;;;;5117150;28;20196;-71
2023/09/27 08:03:27;;;;;;;170.68;69.43;;;;;;;;;;5116999;28;20043;-70
2023/09/27 08:05:53;;;;;;;171.10;70.90;;;;;;;;;;5117214;28;20047;-69
2023/09/27 08:08:21;;;;;;;168.17;70.63;;;;;;;;;;5117201;28;20051;-70
2023/09/27 08:10:47;;;;;;;172.38;72.07;;;;;;;;;;5117131;28;20104;-70
2023/09/27 08:13:14;;;;;;;168.00;71.75;;;;;;;;;;5115822;28;20082;-70
2023/09/27 08:15:41;;;;;;;181.40;75.88;;;;;;;;;;5116721;28;20546;-69
2023/09/27 08:18:07;;;;;;;;;;;;;;;;;;5118259;28;20127;-69
2023/09/27 08:20:35;;;;;;;174.00;69.70;;;;;;;;;;5115638;28;20361;-69
2023/09/27 08:23:00;;;;;;;;;;;;;;;;;;5116521;28;20533;-70
2023/09/27 08:25:26;;;;;;;175.35;70.40;;;;;;;;;;5116303;28;19920;-69
2023/09/27 08:27:53;;;;;;;173.70;70.63;;;;;;;;;;5130143;27;20047;-69
2023/09/27 08:30:20;;;;;;;170.10;70.80;;;;;;;;;;5137384;27;20127;-69
2023/09/27 08:32:46;;;;;;;174.25;71.95;;;;;;;;;;5119129;27;20069;-70
2023/09/27 08:35:12;;;;;;;173.35;68.47;;;;;;;;;;5137640;27;20091;-72
2023/09/27 08:37:39;;;;;;;180.32;72.90;;;;;;;;;;5102092;27;20043;-71
2023/09/27 08:40:07;;;;;;;181.70;74.18;;;;;;;;;;5118975;27;20047;-70
2023/09/27 08:42:34;;;;;;;171.82;71.65;;;;;;;;;;5137535;27;20042;-70
2023/09/27 08:45:01;;;;;;;176.93;74.43;;;;;;;;;;5137540;27;20078;-70
2023/09/27 08:47:28;;;;;;;176.20;73.90;;;;;;;;;;5136846;27;20078;-71
2023/09/27 08:49:57;;;;;;;174.25;72.30;;;;;;;;;;5118558;27;20055;-70
2023/09/27 08:52:26;;;;;;;173.95;70.55;;;;;;;;;;5118321;27;20043;-70
2023/09/27 08:54:52;;;;;;;179.45;71.57;;;;;;;;;;5102137;27;20438;-70
2023/09/27 08:57:19;;;;;;;179.82;72.75;;;;;;;;;;5137272;27;20051;-70
2023/09/27 08:59:45;;;;;;;178.18;74.38;;;;;;;;;;5118452;27;20054;-71
2023/09/27 09:02:12;;;;;;;174.13;72.13;;;;;;;;;;5136631;27;20134;-70
2023/09/27 09:04:40;;;;;;;199.65;79.30;;;;;;;;;;5136563;27;20306;-70
2023/09/27 09:07:07;;;;;;;187.35;75.72;;;;;;;;;;5136319;27;20047;-70
2023/09/27 09:09:33;;;;;;;171.63;73.35;;;;;;;;;;5118244;27;20130;-71
2023/09/27 09:12:08;;;;;;;181.20;75.03;;;;;;;;;;5136710;27;20099;-71
2023/09/27 09:14:49;;;;;;;168.07;72.47;;;;;;;;;;5135955;27;20039;-71
2023/09/27 09:17:19;;;;;;;172.80;70.68;;;;;;;;;;5118727;27;20428;-71
2023/09/27 09:20:49;;;;;;;169.05;74.07;;;;;;;;;;5136225;27;20111;-72
2023/09/27 09:22:54;;;;;;;172.82;72.03;;;;;;;;;;5130328;27;20051;-71
2023/09/27 09:25:22;;;;;;;171.05;71.57;;;;;;;;;;5118231;27;20125;-71
2023/09/27 09:28:07;;;;;;;171.93;74.53;;;;;;;;;;5100478;27;20051;-71
2023/09/27 09:30:37;;;;;;;172.98;69.47;;;;;;;;;;5117747;27;20051;-71
2023/09/27 09:33:08;;;;;;;161.75;68.53;;;;;;;;;;5135907;27;20039;-70
2023/09/27 09:35:35;;;;;;;167.30;70.35;;;;;;;;;;5101508;27;20039;-71
2023/09/27 09:38:03;;;;;;;153.75;65.82;;;;;;;;;;5118717;27;20062;-71
2023/09/27 09:40:31;;;;;;;157.40;70.07;;;;;;;;;;5135881;27;20051;-71
2023/09/27 09:42:59;;;;;;;168.40;66.00;;;;;;;;;;5136448;27;20047;-71
2023/09/27 09:45:26;;;;;;;154.10;66.10;;;;;;;;;;5135705;27;20051;-71
2023/09/27 09:47:52;;;;;;;153.65;66.72;;;;;;;;;;5118259;27;20054;-71
2023/09/27 09:50:18;;;;;;;156.57;66.30;;;;;;;;;;5117437;27;20051;-70
2023/09/27 09:52:55;;;;;;;157.05;66.75;;;;;;;;;;5135597;27;20087;-71
2023/09/27 09:55:23;;;;;;;156.48;65.93;;;;;;;;;;5118045;27;20103;-70
2023/09/27 09:57:55;;;;;;;150.30;66.20;;;;;;;;;;5117300;27;20043;-70
2023/09/27 10:00:27;;;;;;;142.32;59.67;;;;;;;;;;5117619;27;20215;-71
2023/09/27 10:03:04;;;;;;;128.77;57.08;;;;;;;;;;5136134;27;20069;-71
2023/09/27 10:05:37;;;;;;;129.07;56.85;;;;;;;;;;5135041;27;20039;-70
2023/09/27 10:08:04;;;;;;;129.65;55.95;;;;;;;;;;5135883;27;20054;-70
2023/09/27 10:10:30;;;;;;;;;;;;;;;;;;5135537;27;20126;-70
2023/09/27 10:12:58;;;;;;;132.27;55.03;;;;;;;;;;5135211;27;19958;-70
2023/09/27 10:15:24;;;;;;;135.85;57.20;;;;;;;;;;5135271;27;20035;-72
2023/09/27 10:17:50;;;;;;;122.78;55.45;;;;;;;;;;5135062;27;20090;-70
2023/09/27 10:20:20;;;;;;;119.95;52.38;;;;;;;;;;5134755;27;20043;-70
2023/09/27 10:22:47;;;;;;;118.80;53.20;;;;;;;;;;5134970;27;20051;-70
2023/09/27 10:25:30;;;;;;;118.03;52.92;;;;;;;;;;5135733;27;20043;-71
2023/09/27 10:28:02;;;;;;;118.57;51.78;;;;;;;;;;5134736;27;20059;-69
2023/09/27 10:30:28;;;;;;;115.28;52.05;;;;;;;;;;5134878;27;20055;-72
2023/09/27 10:33:30;;;;;;;115.28;50.72;;;;;;;;;;5134902;27;20459;-69
2023/09/27 10:36:02;;;;;;;109.38;49.83;;;;;;;;;;5031608;28;20172;-71
2023/09/27 10:38:43;;;;;;;118.30;52.35;;;;;;;;;;5118302;27;20401;-71
2023/09/27 10:41:09;;;;;;;112.20;50.10;;;;;;;;;;5135242;27;20142;-70
2023/09/27 10:43:36;;;;;;;101.47;46.20;;;;;;;;;;5135076;27;20129;-70
2023/09/27 10:46:04;;;;;;;103.97;46.60;;;;;;;;;;5134717;27;20093;-70
2023/09/27 10:48:35;;;;;;;100.50;43.92;;;;;;;;;;5116786;27;20097;-71
2023/09/27 10:51:02;;;;;;;95.60;42.22;;;;;;;;;;5134706;27;20055;-70
2023/09/27 10:53:29;;;;;;;93.82;43.30;;;;;;;;;;5135032;27;20078;-71
2023/09/27 10:55:56;;;;;;;103.55;45.95;;;;;;;;;;5134483;27;20043;-69
2023/09/27 10:58:22;;;;;;;92.97;42.35;;;;;;;;;;5134803;27;20058;-70
2023/09/27 11:00:51;;;;;;;94.70;44.13;;;;;;;;;;5116587;27;20047;-70
2023/09/27 11:03:17;;;;;;;97.05;43.92;;;;;;;;;;5134358;27;20082;-70
2023/09/27 11:05:43;;;;;;;98.40;43.65;;;;;;;;;;5115910;27;20086;-72
2023/09/27 11:08:10;;;;;;;97.55;43.63;;;;;;;;;;5134302;27;20054;-70
2023/09/27 11:10:36;;;;;;;98.82;43.03;;;;;;;;;;5116440;27;20039;-71
2023/09/27 11:13:12;;;;;;;95.20;45.05;;;;;;;;;;5134209;27;20043;-70
2023/09/27 11:15:39;;;;;;;98.20;42.33;;;;;;;;;;5134225;27;20065;-70
2023/09/27 11:18:07;;;;;;;96.18;43.63;;;;;;;;;;5134278;28;20043;-70
2023/09/27 11:20:33;;;;;;;92.57;43.10;;;;;;;;;;5116350;28;20054;-72
2023/09/27 11:23:01;;;;;;;93.05;41.03;;;;;;;;;;5116364;28;20050;-70
2023/09/27 11:25:35;;;;;;;100.88;44.83;;;;;;;;;;5116418;28;20486;-71
2023/09/27 11:28:01;;;;;;;94.78;41.72;;;;;;;;;;5099259;28;20055;-70
2023/09/27 11:30:30;;;;;;;98.10;44.75;;;;;;;;;;5134462;27;20058;-70
2023/09/27 11:32:56;;;;;;;99.85;45.05;;;;;;;;;;5138278;27;20463;-70
2023/09/27 11:35:24;;;;;;;97.05;43.95;;;;;;;;;;5138080;27;20082;-71
2023/09/27 11:37:50;;;;;;;100.45;46.45;;;;;;;;;;5137937;27;20487;-70
2023/09/27 11:40:16;;;;;;;103.28;44.55;;;;;;;;;;5138324;27;20149;-69
2023/09/27 11:42:49;;;;;;;94.30;43.35;;;;;;;;;;5119962;27;20115;-71
2023/09/27 11:45:16;;;;;;;95.75;42.38;;;;;;;;;;5138258;27;20059;-71
2023/09/27 11:47:49;;;;;;;100.03;43.20;;;;;;;;;;5137723;27;20439;-71
2023/09/27 11:50:15;;;;;;;99.47;43.70;;;;;;;;;;5120507;27;20379;-71
2023/09/27 11:52:46;;;;;;;91.47;42.95;;;;;;;;;;5119851;27;20059;-72
2023/09/27 11:55:21;;;;;;;95.45;44.05;;;;;;;;;;5138011;27;20043;-72
2023/09/27 11:57:47;;;;;;;100.20;44.35;;;;;;;;;;5120145;27;20043;-71
2023/09/27 12:00:15;;;;;;;97.70;43.25;;;;;;;;;;5119779;27;20051;-70
2023/09/27 12:02:44;;;;;;;98.25;44.13;;;;;;;;;;5137849;27;20471;-71
2023/09/27 12:05:10;;;;;;;98.22;43.65;;;;;;;;;;5137650;27;20079;-69
2023/09/27 12:07:36;;;;;;;93.88;41.25;;;;;;;;;;5137824;27;20386;-69
2023/09/27 12:10:03;;;;;;;91.68;40.13;;;;;;;;;;5118742;27;20390;-70
2023/09/27 12:12:29;;;;;;;84.47;37.00;;;;;;;;;;5137277;27;20100;-70
2023/09/27 12:14:55;;;;;;;84.60;37.08;;;;;;;;;;5137670;27;20070;-69
2023/09/27 12:17:21;;;;;;;80.03;36.63;;;;;;;;;;5118795;27;20055;-71
2023/09/27 12:19:48;;;;;;;80.20;36.63;;;;;;;;;;5118912;27;20546;-71
2023/09/27 12:22:14;;;;;;;78.05;36.88;;;;;;;;;;5102373;27;20069;-70
2023/09/27 12:24:40;;;;;;;;;;;;;;;;;;5137378;27;20483;-69
2023/09/27 12:27:07;;;;;;;77.03;33.92;;;;;;;;;;5136248;27;19925;-70
2023/09/27 12:29:34;;;;;;;73.95;34.47;;;;;;;;;;5118682;27;20047;-71
2023/09/27 12:32:00;;;;;;;70.10;33.67;;;;;;;;;;5136778;27;20174;-71
2023/09/27 12:34:28;;;;;;;63.65;30.75;;;;;;;;;;5137194;27;20043;-70
2023/09/27 12:36:54;;;;;;;63.28;28.05;;;;;;;;;;5137303;27;20359;-72
2023/09/27 12:39:21;;;;;;;57.75;25.42;;;;;;;;;;5102760;27;20508;-69
2023/09/27 12:41:47;;;;;;;50.28;23.88;;;;;;;;;;5136339;27;20047;-71
2023/09/27 12:44:13;;;;;;;50.03;24.67;;;;;;;;;;5119370;27;20114;-70
2023/09/27 12:46:39;;;;;;;47.47;22.15;;;;;;;;;;5137018;27;20047;-71
2023/09/27 12:49:05;;;;;;;47.78;20.83;;;;;;;;;;5118315;27;20085;-71
2023/09/27 12:51:31;;;;;;;42.60;20.13;;;;;;;;;;5136739;27;20104;-70
2023/09/27 12:53:57;;;;;;;45.53;20.80;;;;;;;;;;5136388;27;20043;-70
2023/09/27 12:56:23;;;;;;;46.17;19.10;;;;;;;;;;5136448;27;20382;-71
2023/09/27 12:58:49;;;;;;;45.13;18.75;;;;;;;;;;5136577;27;20050;-72
2023/09/27 13:01:16;;;;;;;38.50;18.73;;;;;;;;;;5136573;27;20047;-70
2023/09/27 13:03:42;;;;;;;40.88;17.27;;;;;;;;;;5118220;27;20109;-74
2023/09/27 13:06:11;;;;;;;37.78;18.83;;;;;;;;;;5136429;27;20542;-71
2023/09/27 13:08:38;;;;;;;38.42;17.27;;;;;;;;;;5136481;27;20043;-71
2023/09/27 13:11:05;;;;;;;34.10;16.10;;;;;;;;;;5118036;27;20080;-71
2023/09/27 13:13:31;;;;;;;36.90;16.88;;;;;;;;;;5118878;27;20051;-71
2023/09/27 13:15:57;;;;;;;38.80;17.55;;;;;;;;;;5136003;27;20093;-71
2023/09/27 13:18:23;;;;;;;33.30;15.80;;;;;;;;;;5101048;27;20043;-69
2023/09/27 13:20:50;;;;;;;34.90;15.10;;;;;;;;;;5136325;27;20069;-71
2023/09/27 13:23:16;;;;;;;33.90;13.68;;;;;;;;;;5118842;27;20048;-74
2023/09/27 13:25:49;;;;;;;26.88;11.77;;;;;;;;;;5136048;27;20047;-73
2023/09/27 13:28:15;;;;;;;25.38;11.90;;;;;;;;;;5136240;27;20054;-71
2023/09/27 13:30:41;;;;;;;24.83;11.93;;;;;;;;;;5135496;27;20499;-72
2023/09/27 13:33:08;;;;;;;22.98;10.73;;;;;;;;;;5135983;27;20039;-72
2023/09/27 13:35:34;;;;;;;26.52;10.38;;;;;;;;;;5136387;27;20047;-73
2023/09/27 13:38:00;;;;;;;24.65;10.43;;;;;;;;;;5135913;27;20043;-74
2023/09/27 13:40:26;;;;;;;22.63;10.73;;;;;;;;;;5101135;27;20082;-72
2023/09/27 13:42:52;;;;;;;29.42;9.45;;;;;;;;;;5135939;27;20123;-70
2023/09/27 13:45:18;;;;;;;19.63;9.43;;;;;;;;;;5100537;27;20471;-71
2023/09/27 13:47:46;;;;;;;22.05;9.63;;;;;;;;;;5135625;27;20380;-70
2023/09/27 13:50:12;;;;;;;18.10;9.10;;;;;;;;;;5136140;27;20241;-71
2023/09/27 13:52:40;;;;;;;17.50;9.38;;;;;;;;;;5117454;27;20100;-71
2023/09/27 13:55:10;;;;;;;20.85;10.18;;;;;;;;;;5116578;27;20082;-70
2023/09/27 13:57:37;;;;;;;21.27;10.40;;;;;;;;;;5135379;27;20054;-71
2023/09/27 14:00:04;;;;;;;23.80;9.85;;;;;;;;;;5135982;27;20126;-70
2023/09/27 14:02:30;;;;;;;;;;;;;;;;;;5117639;27;20089;-71
2023/09/27 14:04:56;;;;;;;24.00;11.25;;;;;;;;;;5135164;27;19919;-71
2023/09/27 14:07:22;;;;;;;21.80;11.23;;;;;;;;;;5135182;27;20478;-70
2023/09/27 14:09:49;;;;;;;22.55;10.30;;;;;;;;;;5117224;27;20134;-70
2023/09/27 14:12:15;;;;;;;23.55;11.02;;;;;;;;;;5134774;27;20054;-71
2023/09/27 14:14:41;;;;;;;25.48;11.52;;;;;;;;;;5135180;27;20039;-71